createdAt,value
2022-10-30T00:00:41.243Z,11.40
2022-10-30T00:03:14.031Z,14.05
2022-10-30T00:05:45.506Z,7.18
2022-10-30T00:08:13.794Z,10.98
2022-10-30T00:10:41.186Z,8.13
2022-10-30T00:13:08.190Z,7.80
2022-10-30T00:15:34.996Z,10.75
2022-10-30T00:18:02.031Z,16.67
2022-10-30T00:20:28.857Z,11.57
2022-10-30T00:22:55.993Z,9.57
2022-10-30T00:25:22.779Z,9.30
2022-10-30T00:27:49.326Z,11.32
2022-10-30T00:30:16.405Z,10.52
2022-10-30T00:32:43.856Z,10.88
2022-10-30T00:35:11.401Z,13.57
2022-10-30T00:37:39.012Z,7.10
2022-10-30T00:40:06.876Z,9.98
2022-10-30T00:42:33.662Z,7.00
2022-10-30T00:45:00.510Z,11.25
2022-10-30T00:47:38.569Z,9.30
2022-10-30T00:50:13.892Z,8.52
2022-10-30T00:52:50.740Z,8.60
2022-10-30T00:55:20.888Z,6.57
2022-10-30T00:57:48.543Z,8.65
2022-10-30T01:00:15.845Z,10.00
2022-10-30T01:02:43.789Z,7.85
2022-10-30T01:05:15.605Z,8.15
2022-10-30T01:07:42.126Z,5.68
2022-10-30T01:10:09.660Z,7.75
2022-10-30T01:12:36.514Z,8.10
2022-10-30T01:15:03.567Z,7.70
2022-10-30T01:17:53.146Z,6.68
2022-10-30T01:20:57.366Z,10.38
2022-10-30T01:23:48.833Z,5.72
2022-10-30T01:26:44.641Z,11.23
2022-10-30T01:29:40.424Z,6.75
2022-10-30T01:32:15.458Z,6.10
2022-10-30T01:35:07.976Z,8.93
2022-10-30T01:37:57.710Z,7.70
2022-10-30T01:40:24.886Z,9.00
2022-10-30T01:42:58.344Z,7.82
2022-10-30T01:46:03.977Z,7.93
2022-10-30T01:48:55.198Z,8.32
2022-10-30T01:51:39.462Z,10.18
2022-10-30T01:54:41.602Z,14.55
2022-10-30T01:57:41.296Z,9.48
2022-10-30T02:00:16.012Z,8.80
2022-10-30T02:02:49.365Z,9.25
2022-10-30T02:05:32.866Z,7.70
2022-10-30T02:07:59.707Z,12.23
2022-10-30T02:10:27.455Z,7.07
2022-10-30T02:12:54.506Z,9.07
2022-10-30T02:15:24.020Z,9.57
2022-10-30T02:17:50.576Z,8.07
2022-10-30T02:20:19.751Z,9.43
2022-10-30T02:22:47.270Z,12.75
2022-10-30T02:25:14.599Z,8.20
2022-10-30T02:27:41.588Z,10.80
2022-10-30T02:30:11.631Z,11.50
2022-10-30T02:32:38.338Z,10.13
2022-10-30T02:35:06.065Z,11.10
2022-10-30T02:37:32.797Z,8.40
2022-10-30T02:39:59.521Z,9.02
2022-10-30T02:42:26.016Z,12.90
2022-10-30T02:44:53.532Z,14.90
2022-10-30T02:47:20.240Z,10.52
2022-10-30T02:49:47.227Z,16.75
2022-10-30T02:52:13.785Z,9.73
2022-10-30T02:54:41.799Z,6.70
2022-10-30T02:57:09.523Z,9.35
2022-10-30T02:59:37.721Z,9.27
2022-10-30T03:02:04.319Z,11.63
2022-10-30T03:04:31.056Z,15.35
2022-10-30T03:06:57.728Z,17.90
2022-10-30T03:09:24.454Z,15.70
2022-10-30T03:11:50.984Z,11.82
2022-10-30T03:14:17.611Z,18.48
2022-10-30T03:16:44.133Z,12.65
2022-10-30T03:19:10.779Z,15.32
2022-10-30T03:21:37.315Z,8.40
2022-10-30T03:24:04.814Z,9.70
2022-10-30T03:26:32.333Z,10.52
2022-10-30T03:29:06.806Z,9.43
2022-10-30T03:31:33.841Z,10.77
2022-10-30T03:34:13.879Z,7.03
2022-10-30T03:36:41.750Z,10.35
2022-10-30T03:39:08.410Z,8.77
2022-10-30T03:41:35.795Z,13.30
2022-10-30T03:44:02.365Z,9.90
2022-10-30T03:46:31.411Z,10.60
2022-10-30T03:49:10.826Z,15.40
2022-10-30T03:51:37.732Z,8.77
2022-10-30T03:54:04.324Z,8.07
2022-10-30T03:56:32.717Z,9.57
2022-10-30T03:59:00.784Z,7.82
2022-10-30T04:01:28.197Z,8.55
2022-10-30T04:03:56.879Z,11.07
2022-10-30T04:06:25.042Z,8.77
2022-10-30T04:08:53.931Z,8.80
2022-10-30T04:11:20.611Z,7.55
2022-10-30T04:13:47.131Z,7.53
2022-10-30T04:16:13.677Z,5.75
2022-10-30T04:18:40.831Z,10.10
2022-10-30T04:21:07.417Z,9.02
2022-10-30T04:23:35.739Z,9.00
2022-10-30T04:26:02.339Z,8.65
2022-10-30T04:28:29.067Z,4.47
2022-10-30T04:30:56.459Z,4.55
2022-10-30T04:33:25.551Z,5.68
2022-10-30T04:35:52.073Z,7.40
2022-10-30T04:38:20.420Z,6.15
2022-10-30T04:40:48.109Z,5.20
2022-10-30T04:43:16.262Z,6.82
2022-10-30T04:45:47.549Z,6.38
2022-10-30T04:48:16.858Z,6.65
2022-10-30T04:50:44.422Z,5.22
2022-10-30T04:53:19.060Z,7.57
2022-10-30T04:55:48.045Z,7.80
2022-10-30T04:58:15.121Z,5.65
2022-10-30T05:00:43.757Z,5.43
2022-10-30T05:03:23.128Z,15.65
2022-10-30T05:05:58.157Z,7.72
2022-10-30T05:08:24.886Z,8.38
2022-10-30T05:10:52.209Z,10.95
2022-10-30T05:13:18.994Z,5.60
2022-10-30T05:15:45.684Z,9.45
2022-10-30T05:18:12.242Z,8.45
2022-10-30T05:20:38.977Z,7.18
2022-10-30T05:23:05.669Z,6.53
2022-10-30T05:25:32.655Z,9.38
2022-10-30T05:28:02.534Z,7.93
2022-10-30T05:30:33.014Z,5.55
2022-10-30T05:33:01.295Z,9.50
2022-10-30T05:35:30.367Z,9.38
2022-10-30T05:37:57.458Z,6.53
2022-10-30T05:40:24.184Z,5.82
2022-10-30T05:42:51.534Z,7.80
2022-10-30T05:45:18.420Z,8.27
2022-10-30T05:47:55.270Z,5.70
2022-10-30T05:50:23.193Z,7.28
2022-10-30T05:53:10.413Z,9.27
2022-10-30T05:55:38.760Z,9.95
2022-10-30T05:58:17.194Z,7.43
2022-10-30T06:00:47.593Z,9.77
2022-10-30T06:03:19.583Z,6.75
2022-10-30T06:05:47.240Z,6.72
2022-10-30T06:08:16.268Z,9.05
2022-10-30T06:10:43.880Z,6.63
2022-10-30T06:13:16.756Z,7.55
2022-10-30T06:16:01.659Z,7.93
2022-10-30T06:18:46.584Z,5.28
2022-10-30T06:21:13.481Z,16.38
2022-10-30T06:23:49.545Z,9.32
2022-10-30T06:26:32.685Z,5.55
2022-10-30T06:29:05.294Z,13.90
2022-10-30T06:31:31.884Z,9.70
2022-10-30T06:34:00.356Z,5.82
2022-10-30T06:36:28.009Z,7.00
2022-10-30T06:38:54.575Z,7.18
2022-10-30T06:41:29.070Z,8.07
2022-10-30T06:44:15.211Z,9.07
2022-10-30T06:46:41.740Z,5.38
2022-10-30T06:49:08.663Z,6.13
2022-10-30T06:51:35.324Z,7.43
2022-10-30T06:54:02.838Z,7.63
2022-10-30T06:56:52.603Z,8.23
2022-10-30T06:59:44.197Z,6.35
2022-10-30T07:02:24.576Z,14.80
2022-10-30T07:04:54.872Z,7.72
2022-10-30T07:07:21.573Z,13.05
2022-10-30T07:09:48.426Z,6.93
2022-10-30T07:12:17.534Z,10.60
2022-10-30T07:14:56.169Z,8.52
2022-10-30T07:17:52.414Z,8.82
2022-10-30T07:20:22.400Z,10.23
2022-10-30T07:22:49.056Z,7.18
2022-10-30T07:25:15.986Z,9.27
2022-10-30T07:27:57.659Z,8.70
2022-10-30T07:30:31.539Z,6.13
2022-10-30T07:33:15.082Z,7.75
2022-10-30T07:36:14.961Z,5.45
2022-10-30T07:39:03.546Z,9.50
2022-10-30T07:41:37.705Z,9.38
2022-10-30T07:44:32.898Z,9.13
2022-10-30T07:47:18.589Z,6.28
2022-10-30T07:50:06.039Z,7.47
2022-10-30T07:52:33.625Z,7.65
2022-10-30T07:55:00.617Z,9.93
2022-10-30T07:57:56.948Z,8.52
2022-10-30T08:00:56.486Z,6.85
2022-10-30T08:03:30.271Z,6.53
2022-10-30T08:06:04.265Z,5.10
2022-10-30T08:08:39.090Z,5.85
2022-10-30T08:11:42.054Z,5.47
2022-10-30T08:14:08.575Z,6.20
2022-10-30T08:16:35.416Z,6.72
2022-10-30T08:19:02.629Z,9.48
2022-10-30T08:21:29.296Z,4.55
2022-10-30T08:24:01.697Z,4.55
2022-10-30T08:26:31.561Z,5.32
2022-10-30T08:28:58.128Z,8.93
2022-10-30T08:31:26.307Z,7.25
2022-10-30T08:34:02.067Z,6.70
2022-10-30T08:36:54.928Z,8.40
2022-10-30T08:39:22.085Z,6.95
2022-10-30T08:41:56.706Z,6.90
2022-10-30T08:44:23.385Z,6.90
2022-10-30T08:47:19.243Z,10.27
2022-10-30T08:49:46.442Z,7.20
2022-10-30T08:52:15.573Z,8.43
2022-10-30T08:54:44.483Z,6.50
2022-10-30T08:57:11.550Z,8.25
2022-10-30T08:59:39.348Z,6.97
2022-10-30T09:02:12.766Z,5.68
2022-10-30T09:05:19.481Z,8.85
2022-10-30T09:08:04.375Z,10.15
2022-10-30T09:10:59.401Z,5.57
2022-10-30T09:13:26.682Z,7.97
2022-10-30T09:15:54.656Z,8.98
2022-10-30T09:18:21.691Z,8.23
2022-10-30T09:20:49.674Z,5.85
2022-10-30T09:23:16.409Z,7.80
2022-10-30T09:25:45.967Z,7.68
2022-10-30T09:28:35.428Z,12.27
2022-10-30T09:31:22.019Z,7.93
2022-10-30T09:33:49.079Z,8.00
2022-10-30T09:36:33.966Z,9.50
2022-10-30T09:39:01.084Z,8.43
2022-10-30T09:41:58.528Z,13.88
2022-10-30T09:45:08.096Z,13.00
2022-10-30T09:47:44.065Z,8.45
2022-10-30T09:50:26.155Z,6.72
2022-10-30T09:53:07.112Z,7.25
2022-10-30T09:55:49.261Z,5.65
2022-10-30T09:58:28.074Z,5.78
2022-10-30T10:01:21.424Z,6.88
2022-10-30T10:04:00.757Z,7.93
2022-10-30T10:06:44.845Z,5.47
2022-10-30T10:09:43.680Z,5.82
2022-10-30T10:12:35.284Z,8.07
2022-10-30T10:15:10.593Z,7.32
2022-10-30T10:17:41.412Z,5.55
2022-10-30T10:20:20.364Z,6.30
2022-10-30T10:22:50.409Z,9.68
2022-10-30T10:25:20.776Z,7.13
2022-10-30T10:27:59.489Z,5.90
2022-10-30T10:30:36.925Z,5.82
2022-10-30T10:33:57.633Z,6.30
2022-10-30T10:36:33.606Z,6.72
2022-10-30T10:39:25.027Z,6.57
2022-10-30T10:42:24.782Z,7.47
2022-10-30T10:45:04.424Z,9.70
2022-10-30T10:47:54.382Z,11.32
2022-10-30T10:50:46.692Z,7.22
2022-10-30T10:53:57.440Z,6.70
2022-10-30T10:56:33.723Z,7.20
2022-10-30T10:59:08.884Z,9.73
2022-10-30T11:01:40.334Z,9.88
2022-10-30T11:04:29.070Z,7.40
2022-10-30T11:06:57.132Z,8.30
2022-10-30T11:09:27.207Z,6.22
2022-10-30T11:11:55.563Z,4.72
2022-10-30T11:14:29.046Z,5.65
2022-10-30T11:17:08.234Z,7.05
2022-10-30T11:19:34.900Z,4.00
2022-10-30T11:22:04.154Z,5.07
2022-10-30T11:24:36.579Z,4.55
2022-10-30T11:27:24.219Z,8.48
2022-10-30T11:30:01.235Z,5.68
2022-10-30T11:32:30.808Z,6.78
2022-10-30T11:35:03.518Z,7.13
2022-10-30T11:37:33.041Z,5.50
2022-10-30T11:40:07.416Z,7.40
2022-10-30T11:42:35.234Z,7.68
2022-10-30T11:45:03.225Z,7.53
2022-10-30T11:47:38.369Z,6.95
2022-10-30T11:50:15.279Z,6.75
2022-10-30T11:52:43.930Z,10.55
2022-10-30T11:55:36.275Z,9.85
2022-10-30T11:58:05.095Z,8.05
2022-10-30T12:00:34.417Z,5.10
2022-10-30T12:03:01.613Z,5.40
2022-10-30T12:05:32.870Z,8.40
2022-10-30T12:08:08.625Z,5.95
2022-10-30T12:10:52.396Z,11.13
2022-10-30T12:13:21.596Z,9.90
2022-10-30T12:15:50.857Z,4.93
2022-10-30T12:18:24.798Z,7.30
2022-10-30T12:20:54.312Z,9.68
2022-10-30T12:23:25.788Z,11.98
2022-10-30T12:25:54.940Z,9.05
2022-10-30T12:28:24.760Z,6.72
2022-10-30T12:30:51.370Z,5.28
2022-10-30T12:33:23.032Z,7.15
2022-10-30T12:35:56.943Z,10.38
2022-10-30T12:38:42.239Z,6.93
2022-10-30T12:41:18.777Z,8.55
2022-10-30T12:43:58.092Z,5.57
2022-10-30T12:46:40.215Z,5.97
2022-10-30T12:49:26.359Z,7.28
2022-10-30T12:52:02.414Z,6.45
2022-10-30T12:54:42.707Z,5.53
2022-10-30T12:57:15.842Z,5.75
2022-10-30T13:00:07.501Z,5.72
2022-10-30T13:02:42.655Z,6.82
2022-10-30T13:05:25.960Z,4.97
2022-10-30T13:08:04.501Z,10.10
2022-10-30T13:10:46.062Z,10.18
2022-10-30T13:13:21.668Z,6.32
2022-10-30T13:15:57.553Z,5.05
2022-10-30T13:18:31.481Z,5.10
2022-10-30T13:21:11.225Z,4.55
2022-10-30T13:23:48.497Z,5.45
2022-10-30T13:26:26.976Z,12.00
2022-10-30T13:29:23.414Z,4.13
2022-10-30T13:31:50.664Z,6.38
2022-10-30T13:34:19.969Z,5.45
2022-10-30T13:36:54.323Z,9.02
2022-10-30T13:39:36.386Z,5.15
2022-10-30T13:42:25.092Z,4.88
2022-10-30T13:44:54.311Z,5.60
2022-10-30T13:47:29.913Z,7.32
2022-10-30T13:50:28.817Z,5.93
2022-10-30T13:52:58.970Z,4.78
2022-10-30T13:55:35.911Z,8.02
2022-10-30T13:58:02.442Z,4.50
2022-10-30T14:00:34.755Z,8.45
2022-10-30T14:03:26.191Z,5.57
2022-10-30T14:06:07.904Z,10.05
2022-10-30T14:09:02.220Z,6.57
2022-10-30T14:11:28.756Z,6.93
2022-10-30T14:13:57.974Z,4.40
2022-10-30T14:16:46.516Z,4.82
2022-10-30T14:19:16.923Z,4.18
2022-10-30T14:21:44.769Z,5.38
2022-10-30T14:24:21.105Z,8.35
2022-10-30T14:26:55.010Z,8.20
2022-10-30T14:29:33.896Z,4.57
2022-10-30T14:32:01.668Z,7.28
2022-10-30T14:34:50.406Z,9.57
2022-10-30T14:37:24.159Z,4.65
2022-10-30T14:39:51.863Z,4.53
2022-10-30T14:42:50.983Z,53.22
2022-10-30T14:45:25.756Z,47.58
2022-10-30T14:47:58.456Z,31.27
2022-10-30T14:50:40.176Z,9.85
2022-10-30T14:53:30.223Z,11.70
2022-10-30T14:58:42.073Z,5.70
2022-10-30T15:01:27.522Z,4.80
2022-10-30T15:04:13.430Z,6.65
2022-10-30T15:06:39.941Z,7.28
2022-10-30T15:09:48.388Z,6.38
2022-10-30T15:12:35.868Z,7.78
2022-10-30T15:15:09.641Z,6.50
2022-10-30T15:17:45.267Z,7.70
2022-10-30T15:20:25.830Z,10.98
2022-10-30T15:22:59.706Z,9.63
2022-10-30T15:25:33.498Z,6.90
2022-10-30T15:28:00.858Z,9.15
2022-10-30T15:30:28.402Z,7.45
2022-10-30T15:32:55.191Z,7.40
2022-10-30T15:35:27.406Z,6.50
2022-10-30T15:38:07.169Z,7.60
2022-10-30T15:40:35.390Z,8.27
2022-10-30T15:43:04.525Z,6.60
2022-10-30T15:45:37.006Z,11.23
2022-10-30T15:48:19.403Z,10.60
2022-10-30T15:50:54.690Z,12.35
2022-10-30T15:53:27.343Z,8.93
2022-10-30T15:55:58.748Z,9.55
2022-10-30T15:58:25.653Z,10.32
2022-10-30T16:01:01.368Z,10.18
2022-10-30T16:03:29.255Z,14.32
2022-10-30T16:06:17.656Z,10.65
2022-10-30T16:08:46.868Z,11.77
2022-10-30T16:11:14.918Z,14.55
2022-10-30T16:13:42.274Z,15.13
2022-10-30T16:16:17.118Z,13.52
2022-10-30T16:18:44.278Z,10.35
2022-10-30T16:21:15.918Z,15.38
2022-10-30T16:23:55.150Z,16.75
2022-10-30T16:26:27.146Z,8.35
2022-10-30T16:28:53.730Z,11.18
2022-10-30T16:31:20.814Z,12.15
2022-10-30T16:33:48.182Z,16.95
2022-10-30T16:36:17.911Z,14.30
2022-10-30T16:38:48.255Z,16.05
2022-10-30T16:41:15.168Z,13.38
2022-10-30T16:43:48.444Z,14.32
2022-10-30T16:46:14.933Z,19.25
2022-10-30T16:48:46.679Z,12.90
2022-10-30T16:51:17.968Z,13.05
2022-10-30T16:53:48.798Z,20.60
2022-10-30T16:56:25.852Z,15.57
2022-10-30T16:58:56.186Z,10.05
2022-10-30T17:01:27.938Z,8.88
2022-10-30T17:03:55.764Z,25.58
2022-10-30T17:06:44.715Z,12.52
2022-10-30T17:09:28.775Z,10.35
2022-10-30T17:12:13.976Z,8.30
2022-10-30T17:14:46.642Z,10.73
2022-10-30T17:17:31.768Z,9.93
2022-10-30T17:20:23.764Z,9.15
2022-10-30T17:23:16.579Z,11.43
2022-10-30T17:25:43.522Z,18.52
2022-10-30T17:28:27.461Z,14.75
2022-10-30T17:30:57.640Z,11.30
2022-10-30T17:33:37.106Z,9.25
2022-10-30T17:36:05.925Z,9.27
2022-10-30T17:38:32.663Z,12.98
2022-10-30T17:41:00.129Z,9.02
2022-10-30T17:43:30.107Z,8.70
2022-10-30T17:45:57.619Z,11.77
2022-10-30T17:48:26.972Z,17.73
2022-10-30T17:50:53.864Z,17.38
2022-10-30T17:53:23.225Z,18.83
2022-10-30T17:55:58.985Z,16.70
2022-10-30T17:58:25.667Z,15.77
2022-10-30T18:00:52.325Z,17.13
2022-10-30T18:03:18.965Z,18.13
2022-10-30T18:05:46.749Z,16.85
2022-10-30T18:08:13.291Z,14.43
2022-10-30T18:10:39.853Z,19.25
2022-10-30T18:13:06.396Z,12.45
2022-10-30T18:15:45.232Z,18.73
2022-10-30T18:18:11.779Z,15.82
2022-10-30T18:20:38.807Z,15.70
2022-10-30T18:26:20.904Z,27.77
2022-10-30T18:28:48.006Z,27.15
2022-10-30T18:31:16.933Z,17.45
2022-10-30T18:33:44.234Z,20.38
2022-10-30T18:36:17.011Z,18.70
2022-10-30T18:38:44.260Z,22.73
2022-10-30T18:41:44.870Z,20.58
2022-10-30T18:44:16.158Z,18.70
2022-10-30T18:46:43.163Z,21.13
2022-10-30T18:49:09.768Z,18.75
2022-10-30T18:51:36.393Z,22.63
2022-10-30T18:54:03.193Z,16.63
2022-10-30T18:56:32.669Z,22.70
2022-10-30T18:59:01.711Z,22.27
2022-10-30T19:01:29.910Z,20.52
2022-10-30T19:03:58.655Z,25.88
2022-10-30T19:06:25.189Z,20.00
2022-10-30T19:08:51.730Z,19.52
2022-10-30T19:11:24.319Z,15.57
2022-10-30T19:13:52.642Z,15.23
2022-10-30T19:16:21.472Z,18.58
2022-10-30T19:18:48.759Z,14.40
2022-10-30T19:21:18.382Z,16.27
2022-10-30T19:23:45.291Z,19.20
2022-10-30T19:26:14.622Z,13.18
2022-10-30T19:28:41.693Z,22.10
2022-10-30T19:31:13.707Z,19.92
2022-10-30T19:33:40.192Z,20.80
2022-10-30T19:36:06.967Z,17.23
2022-10-30T19:38:34.015Z,20.17
2022-10-30T19:41:00.825Z,21.92
2022-10-30T19:43:27.764Z,16.90
2022-10-30T19:45:56.941Z,15.10
2022-10-30T19:48:47.736Z,16.35
2022-10-30T19:51:11.903Z,17.27
2022-10-30T19:53:40.043Z,14.68
2022-10-30T19:56:07.105Z,22.13
2022-10-30T19:58:33.730Z,23.73
2022-10-30T20:01:00.398Z,22.17
2022-10-30T20:03:27.085Z,26.63
2022-10-30T20:05:55.598Z,29.80
2022-10-30T20:08:24.219Z,25.25
2022-10-30T20:10:55.803Z,23.45
2022-10-30T20:13:23.569Z,21.20
2022-10-30T20:15:51.519Z,17.80
2022-10-30T20:18:20.822Z,16.52
2022-10-30T20:20:55.795Z,15.13
2022-10-30T20:23:23.886Z,12.43
2022-10-30T20:25:59.409Z,14.27
2022-10-30T20:28:27.564Z,13.05
2022-10-30T20:30:54.892Z,14.40
2022-10-30T20:33:22.783Z,13.25
2022-10-30T20:35:50.638Z,10.13
2022-10-30T20:38:19.652Z,16.73
2022-10-30T20:40:47.626Z,13.57
2022-10-30T20:43:20.048Z,11.48
2022-10-30T20:45:47.517Z,8.35
2022-10-30T20:48:14.159Z,11.25
2022-10-30T20:50:40.987Z,10.07
2022-10-30T20:53:12.739Z,11.00
2022-10-30T20:55:40.307Z,10.52
2022-10-30T20:58:07.046Z,14.90
2022-10-30T21:00:33.853Z,15.70
2022-10-30T21:03:05.107Z,15.90
2022-10-30T21:05:45.092Z,14.75
2022-10-30T21:08:13.780Z,14.43
2022-10-30T21:10:41.267Z,11.90
2022-10-30T21:13:09.625Z,9.45
2022-10-30T21:15:42.623Z,10.70
2022-10-30T21:18:11.425Z,10.63
2022-10-30T21:20:38.770Z,9.02
2022-10-30T21:23:05.944Z,9.38
2022-10-30T21:25:32.973Z,6.55
2022-10-30T21:28:00.418Z,6.75
2022-10-30T21:30:27.862Z,8.32
2022-10-30T21:32:54.433Z,11.32
2022-10-30T21:35:20.973Z,6.40
2022-10-30T21:37:47.649Z,8.32
2022-10-30T21:40:14.247Z,9.30
2022-10-30T21:42:40.893Z,6.43
2022-10-30T21:45:08.283Z,13.20
2022-10-30T21:47:34.865Z,13.13
2022-10-30T21:50:06.056Z,9.30
2022-10-30T21:52:36.146Z,10.60
2022-10-30T21:55:02.960Z,8.75
2022-10-30T21:57:29.758Z,14.23
2022-10-30T21:59:58.778Z,10.43
2022-10-30T22:02:31.087Z,7.60
2022-10-30T22:04:57.581Z,6.53
2022-10-30T22:07:24.241Z,8.27
2022-10-30T22:09:50.862Z,10.02
2022-10-30T22:12:20.410Z,9.80
2022-10-30T22:14:46.955Z,7.15
2022-10-30T22:17:13.524Z,9.38
2022-10-30T22:19:40.012Z,7.38
2022-10-30T22:22:06.979Z,10.82
2022-10-30T22:24:33.617Z,13.93
2022-10-30T22:27:00.251Z,8.57
2022-10-30T22:29:26.765Z,12.40
2022-10-30T22:31:53.257Z,10.77
2022-10-30T22:34:19.725Z,9.88
2022-10-30T22:36:46.896Z,11.35
2022-10-30T22:39:14.265Z,14.98
2022-10-30T22:41:41.746Z,17.70
2022-10-30T22:44:12.643Z,21.25
2022-10-30T22:46:39.642Z,22.15
2022-10-30T22:49:07.114Z,17.92
2022-10-30T22:51:35.997Z,21.30
2022-10-30T22:54:05.081Z,11.65
2022-10-30T22:56:34.090Z,13.77
2022-10-30T22:59:02.712Z,11.02
2022-10-30T23:01:31.903Z,10.77
2022-10-30T23:04:00.263Z,11.30
2022-10-30T23:06:28.837Z,8.77
2022-10-30T23:08:56.846Z,9.27
2022-10-30T23:11:23.616Z,10.38
2022-10-30T23:13:50.211Z,9.07
2022-10-30T23:16:22.202Z,7.93
2022-10-30T23:18:49.952Z,9.05
2022-10-30T23:21:22.172Z,9.32
2022-10-30T23:23:49.404Z,7.07
2022-10-30T23:26:19.247Z,8.40
2022-10-30T23:28:46.844Z,6.40
2022-10-30T23:31:20.678Z,10.50
2022-10-30T23:33:51.432Z,9.25
2022-10-30T23:36:18.839Z,14.77
2022-10-30T23:38:51.147Z,17.95
2022-10-30T23:41:17.661Z,26.33
2022-10-30T23:43:44.222Z,23.02
2022-10-30T23:46:10.809Z,18.27
2022-10-30T23:48:37.281Z,23.05
2022-10-30T23:51:08.259Z,20.77
2022-10-30T23:53:35.337Z,38.22
2022-10-30T23:56:02.151Z,39.30
2022-10-30T23:58:28.660Z,26.77
